createdAt,value
2022-10-09T00:01:08.686Z,15.80
2022-10-09T00:03:36.991Z,15.80
2022-10-09T00:06:04.895Z,15.15
2022-10-09T00:08:31.803Z,15.77
2022-10-09T00:10:58.227Z,13.90
2022-10-09T00:13:24.707Z,15.10
2022-10-09T00:15:51.206Z,14.13
2022-10-09T00:18:18.613Z,16.55
2022-10-09T00:20:46.571Z,15.60
2022-10-09T00:23:15.258Z,18.92
2022-10-09T00:25:53.542Z,18.20
2022-10-09T00:28:21.344Z,17.70
2022-10-09T00:30:48.163Z,20.02
2022-10-09T00:33:14.833Z,20.92
2022-10-09T00:35:41.690Z,19.38
2022-10-09T00:38:08.719Z,19.15
2022-10-09T00:40:37.445Z,19.40
2022-10-09T00:43:06.989Z,19.35
2022-10-09T00:45:33.653Z,17.48
2022-10-09T00:48:03.120Z,18.55
2022-10-09T00:50:46.509Z,19.92
2022-10-09T00:53:18.535Z,20.38
2022-10-09T00:55:45.843Z,16.95
2022-10-09T00:58:13.096Z,19.55
2022-10-09T01:00:40.639Z,20.30
2022-10-09T01:03:07.199Z,18.83
2022-10-09T01:06:04.445Z,18.27
2022-10-09T01:09:09.925Z,17.27
2022-10-09T01:11:49.171Z,17.00
2022-10-09T01:14:32.382Z,16.48
2022-10-09T01:17:05.121Z,17.70
2022-10-09T01:19:42.371Z,16.52
2022-10-09T01:22:29.163Z,15.85
2022-10-09T01:25:05.156Z,16.27
2022-10-09T01:27:33.138Z,16.20
2022-10-09T01:30:08.231Z,15.20
2022-10-09T01:32:38.686Z,17.63
2022-10-09T01:35:07.004Z,16.42
2022-10-09T01:37:35.744Z,19.05
2022-10-09T01:40:04.458Z,27.20
2022-10-09T01:42:32.565Z,30.15
2022-10-09T01:44:59.084Z,31.33
2022-10-09T01:47:26.156Z,41.38
2022-10-09T01:50:03.942Z,39.38
2022-10-09T01:52:40.388Z,41.83
2022-10-09T01:55:45.546Z,40.47
2022-10-09T01:58:23.487Z,41.13
2022-10-09T02:01:09.634Z,39.67
2022-10-09T02:03:40.769Z,37.30
2022-10-09T02:06:12.316Z,42.25
2022-10-09T02:08:40.284Z,38.78
2022-10-09T02:11:07.495Z,31.38
2022-10-09T02:13:35.977Z,32.58
2022-10-09T02:16:05.767Z,29.45
2022-10-09T02:18:42.320Z,20.90
2022-10-09T02:21:15.151Z,27.50
2022-10-09T02:23:45.127Z,22.38
2022-10-09T02:26:12.816Z,17.52
2022-10-09T02:28:43.819Z,18.13
2022-10-09T02:31:17.041Z,22.90
2022-10-09T02:33:43.585Z,21.38
2022-10-09T02:36:10.334Z,19.02
2022-10-09T02:38:36.808Z,18.25
2022-10-09T02:41:03.566Z,13.35
2022-10-09T02:43:30.078Z,13.73
2022-10-09T02:45:56.524Z,12.40
2022-10-09T02:48:23.009Z,13.02
2022-10-09T02:50:49.519Z,12.10
2022-10-09T02:53:16.055Z,11.40
2022-10-09T02:55:42.512Z,11.30
2022-10-09T02:58:08.934Z,10.95
2022-10-09T03:00:37.335Z,9.80
2022-10-09T03:03:04.230Z,9.75
2022-10-09T03:05:30.739Z,9.98
2022-10-09T03:07:57.213Z,10.07
2022-10-09T03:10:23.719Z,9.88
2022-10-09T03:12:50.514Z,9.82
2022-10-09T03:15:17.242Z,10.15
2022-10-09T03:17:43.764Z,9.00
2022-10-09T03:20:10.268Z,9.75
2022-10-09T03:22:36.697Z,8.85
2022-10-09T03:25:03.498Z,9.68
2022-10-09T03:27:30.874Z,9.57
2022-10-09T03:29:58.546Z,9.35
2022-10-09T03:32:25.602Z,12.82
2022-10-09T03:34:52.139Z,9.32
2022-10-09T03:37:18.635Z,9.98
2022-10-09T03:39:45.155Z,9.65
2022-10-09T03:42:11.635Z,9.80
2022-10-09T03:44:38.026Z,9.70
2022-10-09T03:47:04.559Z,9.18
2022-10-09T03:49:31.037Z,10.05
2022-10-09T03:51:57.483Z,9.15
2022-10-09T03:54:23.906Z,9.13
2022-10-09T03:56:50.330Z,13.50
2022-10-09T03:59:16.810Z,10.95
2022-10-09T04:01:43.249Z,13.02
2022-10-09T04:04:09.660Z,13.25
2022-10-09T04:06:36.136Z,15.75
2022-10-09T04:09:02.597Z,12.75
2022-10-09T04:11:29.003Z,19.67
2022-10-09T04:13:55.496Z,16.05
2022-10-09T04:16:21.981Z,17.83
2022-10-09T04:18:48.531Z,15.15
2022-10-09T04:21:15.077Z,13.90
2022-10-09T04:23:41.622Z,17.77
2022-10-09T04:26:08.147Z,19.15
2022-10-09T04:28:34.717Z,20.63
2022-10-09T04:31:01.434Z,18.77
2022-10-09T04:33:28.149Z,20.52
2022-10-09T04:35:55.696Z,19.52
2022-10-09T04:38:23.409Z,21.33
2022-10-09T04:41:01.818Z,20.85
2022-10-09T04:43:28.397Z,21.55
2022-10-09T04:45:55.352Z,20.20
2022-10-09T04:48:22.227Z,16.63
2022-10-09T04:50:49.015Z,17.55
2022-10-09T04:53:15.752Z,16.52
2022-10-09T04:55:44.076Z,15.48
2022-10-09T04:58:12.137Z,14.98
2022-10-09T05:00:43.953Z,13.43
2022-10-09T05:05:37.617Z,14.60
2022-10-09T05:08:04.302Z,13.45
2022-10-09T05:10:32.278Z,13.18
2022-10-09T05:12:59.216Z,14.32
2022-10-09T05:15:25.894Z,15.30
2022-10-09T05:17:52.340Z,14.05
2022-10-09T05:20:18.848Z,14.43
2022-10-09T05:22:46.375Z,13.73
2022-10-09T05:25:13.776Z,15.10
2022-10-09T05:27:40.215Z,15.55
2022-10-09T05:30:07.799Z,15.40
2022-10-09T05:32:34.503Z,15.73
2022-10-09T05:35:00.955Z,13.13
2022-10-09T05:37:27.511Z,16.25
2022-10-09T05:39:53.968Z,15.70
2022-10-09T05:42:20.404Z,18.45
2022-10-09T05:44:46.846Z,18.08
2022-10-09T05:47:17.768Z,16.85
2022-10-09T05:49:44.209Z,16.63
2022-10-09T05:52:10.619Z,14.68
2022-10-09T05:54:37.092Z,15.90
2022-10-09T05:57:04.903Z,15.75
2022-10-09T05:59:31.321Z,13.15
2022-10-09T06:01:58.021Z,13.32
2022-10-09T06:04:25.035Z,14.82
2022-10-09T06:06:51.964Z,13.85
2022-10-09T06:09:24.051Z,12.95
2022-10-09T06:11:51.135Z,14.30
2022-10-09T06:14:18.206Z,13.07
2022-10-09T06:16:45.512Z,14.73
2022-10-09T06:19:14.411Z,14.80
2022-10-09T06:21:41.212Z,13.25
2022-10-09T06:24:07.963Z,14.52
2022-10-09T06:26:35.006Z,13.73
2022-10-09T06:29:02.518Z,14.15
2022-10-09T06:31:32.169Z,16.00
2022-10-09T06:34:00.241Z,16.85
2022-10-09T06:36:29.207Z,17.52
2022-10-09T06:38:56.039Z,16.73
2022-10-09T06:41:25.180Z,21.90
2022-10-09T06:43:54.338Z,23.90
2022-10-09T06:46:22.846Z,25.23
2022-10-09T06:48:49.347Z,21.95
2022-10-09T06:51:19.099Z,21.25
2022-10-09T06:53:50.647Z,20.95
2022-10-09T06:56:19.796Z,22.63
2022-10-09T06:58:46.820Z,21.40
2022-10-09T07:01:23.904Z,21.98
2022-10-09T07:04:02.914Z,27.83
2022-10-09T07:06:31.734Z,25.33
2022-10-09T07:09:07.212Z,25.63
2022-10-09T07:11:39.235Z,23.10
2022-10-09T07:14:08.082Z,24.05
2022-10-09T07:16:38.117Z,25.77
2022-10-09T07:19:11.065Z,29.88
2022-10-09T07:21:40.839Z,27.15
2022-10-09T07:24:08.122Z,28.80
2022-10-09T07:26:37.447Z,30.30
2022-10-09T07:29:05.996Z,32.50
2022-10-09T07:31:32.459Z,28.58
2022-10-09T07:33:59.558Z,29.83
2022-10-09T07:36:26.872Z,29.60
2022-10-09T07:38:55.357Z,28.38
2022-10-09T07:41:23.114Z,24.70
2022-10-09T07:43:49.852Z,27.58
2022-10-09T07:46:18.844Z,32.15
2022-10-09T07:48:45.983Z,34.13
2022-10-09T07:51:15.286Z,33.55
2022-10-09T07:53:41.975Z,36.40
2022-10-09T07:56:13.976Z,33.83
2022-10-09T07:58:40.430Z,32.80
2022-10-09T08:01:07.895Z,34.58
2022-10-09T08:03:35.344Z,32.63
2022-10-09T08:06:01.881Z,30.38
2022-10-09T08:08:28.586Z,29.23
2022-10-09T08:10:55.019Z,27.48
2022-10-09T08:13:21.532Z,30.52
2022-10-09T08:15:48.042Z,29.08
2022-10-09T08:18:15.285Z,28.02
2022-10-09T08:20:41.875Z,27.63
2022-10-09T08:23:08.288Z,27.98
2022-10-09T08:25:36.571Z,30.45
2022-10-09T08:28:04.106Z,30.38
2022-10-09T08:30:30.815Z,36.08
2022-10-09T08:32:57.283Z,30.40
2022-10-09T08:35:23.711Z,34.17
2022-10-09T08:37:50.274Z,35.20
2022-10-09T08:40:29.458Z,36.03
2022-10-09T08:43:07.020Z,33.95
2022-10-09T08:45:35.095Z,38.30
2022-10-09T08:48:06.485Z,34.55
2022-10-09T08:50:38.012Z,35.20
2022-10-09T08:53:24.338Z,40.38
2022-10-09T08:56:03.313Z,40.40
2022-10-09T08:58:35.847Z,33.65
2022-10-09T09:01:21.721Z,42.33
2022-10-09T09:04:06.558Z,42.53
2022-10-09T09:06:42.711Z,46.33
2022-10-09T09:09:20.914Z,50.45
2022-10-09T09:12:12.299Z,49.90
2022-10-09T09:14:56.801Z,44.95
2022-10-09T09:17:41.464Z,45.53
2022-10-09T09:20:20.999Z,40.20
2022-10-09T09:22:49.413Z,43.20
2022-10-09T09:25:19.776Z,50.75
2022-10-09T09:27:46.559Z,53.28
2022-10-09T09:30:13.081Z,49.33
2022-10-09T09:32:43.635Z,54.22
2022-10-09T09:35:25.262Z,51.03
2022-10-09T09:37:53.012Z,50.33
2022-10-09T09:40:37.602Z,56.55
2022-10-09T09:43:16.057Z,53.33
2022-10-09T09:45:43.812Z,52.72
2022-10-09T09:48:18.698Z,52.17
2022-10-09T09:50:52.907Z,48.45
2022-10-09T09:53:39.681Z,49.70
2022-10-09T09:56:07.045Z,47.85
2022-10-09T09:58:39.195Z,49.53
2022-10-09T10:01:07.286Z,46.15
2022-10-09T10:03:35.715Z,46.28
2022-10-09T10:06:02.439Z,39.65
2022-10-09T10:08:33.724Z,40.35
2022-10-09T10:11:07.696Z,40.47
2022-10-09T10:13:45.548Z,35.08
2022-10-09T10:16:21.597Z,35.72
2022-10-09T10:18:48.408Z,38.20
2022-10-09T10:21:17.598Z,38.78
2022-10-09T10:24:04.302Z,35.97
2022-10-09T10:26:42.920Z,30.45
2022-10-09T10:29:19.572Z,33.95
2022-10-09T10:32:11.102Z,32.28
2022-10-09T10:34:45.847Z,25.77
2022-10-09T10:37:14.964Z,28.15
2022-10-09T10:39:50.999Z,27.42
2022-10-09T10:42:53.167Z,26.60
2022-10-09T10:45:33.546Z,25.08
2022-10-09T10:48:02.766Z,24.13
2022-10-09T10:50:41.347Z,21.15
2022-10-09T10:53:32.250Z,22.70
2022-10-09T10:56:05.365Z,21.80
2022-10-09T10:58:46.946Z,17.73
2022-10-09T11:01:35.356Z,16.63
2022-10-09T11:04:21.392Z,16.65
2022-10-09T11:07:18.207Z,17.70
2022-10-09T11:10:15.860Z,17.67
2022-10-09T11:12:53.623Z,17.85
2022-10-09T11:15:44.750Z,17.70
2022-10-09T11:18:29.108Z,16.97
2022-10-09T11:21:40.782Z,17.08
2022-10-09T11:24:26.966Z,13.88
2022-10-09T11:27:03.146Z,12.77
2022-10-09T11:29:39.804Z,13.30
2022-10-09T11:32:22.251Z,12.38
2022-10-09T11:34:57.589Z,13.75
2022-10-09T11:37:29.612Z,12.35
2022-10-09T11:39:56.892Z,11.88
2022-10-09T11:42:25.947Z,10.73
2022-10-09T11:45:18.852Z,11.18
2022-10-09T11:48:10.132Z,12.10
2022-10-09T11:50:48.926Z,12.48
2022-10-09T11:53:18.716Z,10.73
2022-10-09T11:55:45.855Z,11.85
2022-10-09T11:58:24.764Z,12.57
2022-10-09T12:00:57.721Z,10.73
2022-10-09T12:03:27.446Z,10.52
2022-10-09T12:06:04.999Z,9.43
2022-10-09T12:08:31.771Z,9.13
2022-10-09T12:11:07.311Z,8.00
2022-10-09T12:13:36.730Z,9.18
2022-10-09T12:16:03.805Z,9.30
2022-10-09T12:18:34.537Z,8.48
2022-10-09T12:21:05.307Z,8.77
2022-10-09T12:23:36.058Z,7.88
2022-10-09T12:26:03.764Z,7.20
2022-10-09T12:28:45.859Z,7.82
2022-10-09T12:31:30.213Z,6.70
2022-10-09T12:34:04.773Z,5.25
2022-10-09T12:36:31.897Z,6.13
2022-10-09T12:39:12.645Z,5.90
2022-10-09T12:41:39.893Z,6.28
2022-10-09T12:44:15.697Z,6.72
2022-10-09T12:46:42.265Z,6.32
2022-10-09T12:49:19.303Z,5.78
2022-10-09T12:51:53.843Z,5.93
2022-10-09T12:54:25.153Z,6.63
2022-10-09T12:56:56.391Z,6.15
2022-10-09T12:59:26.165Z,7.15
2022-10-09T13:01:57.880Z,7.18
2022-10-09T13:07:05.720Z,6.88
2022-10-09T13:09:37.832Z,6.60
2022-10-09T13:12:09.259Z,6.65
2022-10-09T13:14:45.929Z,6.40
2022-10-09T13:17:33.497Z,5.32
2022-10-09T13:20:21.419Z,5.43
2022-10-09T13:22:55.435Z,5.53
2022-10-09T13:25:23.392Z,5.43
2022-10-09T13:27:50.110Z,5.20
2022-10-09T13:30:16.956Z,6.35
2022-10-09T13:32:43.452Z,5.68
2022-10-09T13:35:09.890Z,5.07
2022-10-09T13:37:36.701Z,6.05
2022-10-09T13:40:05.842Z,5.30
2022-10-09T13:42:37.096Z,5.13
2022-10-09T13:45:05.665Z,5.55
2022-10-09T13:47:32.168Z,4.88
2022-10-09T13:49:59.107Z,5.25
2022-10-09T13:52:25.627Z,5.20
2022-10-09T13:54:52.146Z,4.95
2022-10-09T13:57:18.790Z,6.25
2022-10-09T13:59:45.534Z,5.30
2022-10-09T14:02:12.324Z,5.22
2022-10-09T14:04:39.014Z,5.55
2022-10-09T14:07:05.544Z,5.53
2022-10-09T14:09:31.997Z,5.20
2022-10-09T14:11:58.887Z,5.20
2022-10-09T14:14:25.327Z,5.18
2022-10-09T14:16:51.816Z,5.07
2022-10-09T14:19:18.402Z,6.13
2022-10-09T14:21:46.801Z,5.57
2022-10-09T14:24:14.467Z,5.88
2022-10-09T14:26:41.275Z,6.53
2022-10-09T14:29:07.825Z,6.10
2022-10-09T14:31:34.265Z,5.82
2022-10-09T14:34:00.843Z,5.90
2022-10-09T14:36:27.576Z,6.65
2022-10-09T14:38:54.225Z,7.97
2022-10-09T14:41:21.617Z,7.38
2022-10-09T14:43:56.070Z,7.35
2022-10-09T14:46:24.308Z,6.45
2022-10-09T14:48:53.131Z,6.80
2022-10-09T14:51:21.290Z,6.90
2022-10-09T14:53:47.926Z,6.68
2022-10-09T14:56:20.085Z,6.32
2022-10-09T14:58:47.128Z,8.07
2022-10-09T15:01:15.563Z,7.82
2022-10-09T15:03:42.667Z,7.00
2022-10-09T15:06:11.777Z,7.00
2022-10-09T15:08:41.505Z,6.97
2022-10-09T15:11:09.479Z,6.15
2022-10-09T15:13:36.768Z,7.15
2022-10-09T15:16:09.585Z,6.20
2022-10-09T15:18:36.163Z,7.57
2022-10-09T15:21:02.862Z,7.30
2022-10-09T15:23:29.735Z,7.32
2022-10-09T15:25:58.287Z,7.18
2022-10-09T15:28:25.510Z,6.95
2022-10-09T15:30:54.705Z,7.82
2022-10-09T15:33:25.658Z,7.55
2022-10-09T15:35:53.844Z,7.47
2022-10-09T15:38:22.579Z,7.50
2022-10-09T15:40:51.432Z,7.85
2022-10-09T15:43:19.831Z,6.85
2022-10-09T15:45:47.150Z,7.80
2022-10-09T15:48:21.861Z,7.47
2022-10-09T15:50:50.651Z,7.10
2022-10-09T15:53:18.958Z,7.15
2022-10-09T15:55:48.039Z,7.60
2022-10-09T15:58:15.807Z,7.20
2022-10-09T16:00:47.304Z,7.60
2022-10-09T16:03:15.053Z,7.57
2022-10-09T16:05:44.321Z,7.45
2022-10-09T16:08:11.798Z,7.32
2022-10-09T16:10:47.860Z,7.05
2022-10-09T16:13:15.498Z,7.35
2022-10-09T16:15:42.611Z,7.43
2022-10-09T16:18:09.935Z,7.28
2022-10-09T16:20:37.977Z,7.43
2022-10-09T16:23:05.333Z,9.05
2022-10-09T16:25:32.253Z,7.07
2022-10-09T16:27:58.734Z,7.57
2022-10-09T16:30:25.688Z,7.28
2022-10-09T16:32:52.856Z,7.40
2022-10-09T16:35:19.896Z,7.13
2022-10-09T16:37:46.316Z,6.53
2022-10-09T16:40:13.058Z,7.03
2022-10-09T16:42:39.807Z,6.13
2022-10-09T16:45:06.872Z,6.60
2022-10-09T16:47:34.016Z,6.13
2022-10-09T16:50:00.486Z,6.15
2022-10-09T16:52:27.048Z,6.45
2022-10-09T16:54:57.073Z,6.00
2022-10-09T16:57:26.060Z,5.82
2022-10-09T16:59:52.542Z,6.10
2022-10-09T17:02:18.964Z,6.30
2022-10-09T17:04:46.248Z,6.63
2022-10-09T17:07:12.887Z,5.78
2022-10-09T17:09:40.491Z,5.78
2022-10-09T17:12:14.940Z,5.93
2022-10-09T17:14:41.427Z,6.35
2022-10-09T17:17:10.035Z,6.35
2022-10-09T17:19:37.900Z,6.45
2022-10-09T17:22:05.238Z,6.40
2022-10-09T17:24:32.148Z,5.93
2022-10-09T17:26:58.767Z,6.00
2022-10-09T17:29:25.245Z,6.10
2022-10-09T17:31:52.078Z,6.65
2022-10-09T17:34:18.723Z,7.07
2022-10-09T17:36:45.791Z,6.55
2022-10-09T17:39:15.383Z,7.22
2022-10-09T17:41:44.237Z,7.30
2022-10-09T17:44:10.716Z,7.30
2022-10-09T17:46:37.185Z,6.57
2022-10-09T17:49:04.513Z,7.07
2022-10-09T17:51:37.083Z,7.25
2022-10-09T17:54:12.298Z,7.20
2022-10-09T17:56:39.717Z,7.47
2022-10-09T17:59:06.370Z,7.40
2022-10-09T18:01:32.958Z,7.05
2022-10-09T18:03:59.836Z,7.00
2022-10-09T18:06:26.631Z,7.03
2022-10-09T18:08:55.386Z,7.10
2022-10-09T18:11:24.197Z,6.72
2022-10-09T18:13:50.992Z,7.25
2022-10-09T18:16:22.828Z,7.25
2022-10-09T18:21:17.062Z,7.32
2022-10-09T18:23:45.028Z,7.68
2022-10-09T18:26:14.543Z,7.80
2022-10-09T18:28:42.671Z,8.00
2022-10-09T18:31:14.293Z,7.45
2022-10-09T18:33:40.797Z,7.35
2022-10-09T18:36:11.825Z,7.35
2022-10-09T18:38:38.327Z,7.75
2022-10-09T18:41:08.263Z,8.00
2022-10-09T18:43:35.200Z,7.22
2022-10-09T18:46:01.725Z,7.75
2022-10-09T18:48:35.166Z,8.65
2022-10-09T18:51:03.515Z,8.35
2022-10-09T18:53:32.450Z,8.30
2022-10-09T18:55:59.139Z,8.20
2022-10-09T18:58:25.803Z,7.72
2022-10-09T19:00:52.266Z,8.75
2022-10-09T19:03:18.731Z,7.60
2022-10-09T19:05:45.195Z,8.57
2022-10-09T19:08:12.336Z,8.48
2022-10-09T19:10:39.260Z,8.68
2022-10-09T19:13:05.887Z,8.73
2022-10-09T19:15:32.499Z,8.30
2022-10-09T19:17:59.440Z,8.73
2022-10-09T19:20:29.383Z,9.05
2022-10-09T19:22:56.368Z,8.10
2022-10-09T19:25:23.401Z,9.10
2022-10-09T19:27:50.633Z,8.43
2022-10-09T19:30:18.529Z,8.18
2022-10-09T19:32:46.328Z,8.57
2022-10-09T19:35:13.380Z,8.18
2022-10-09T19:37:40.284Z,8.88
2022-10-09T19:40:07.957Z,8.98
2022-10-09T19:42:35.039Z,7.82
2022-10-09T19:45:01.550Z,8.10
2022-10-09T19:47:28.391Z,8.55
2022-10-09T19:49:54.978Z,9.10
2022-10-09T19:52:23.013Z,8.82
2022-10-09T19:54:49.986Z,9.13
2022-10-09T19:57:17.006Z,8.20
2022-10-09T19:59:44.130Z,11.73
2022-10-09T20:02:11.176Z,9.50
2022-10-09T20:04:38.146Z,10.57
2022-10-09T20:07:07.927Z,10.25
2022-10-09T20:09:38.906Z,10.50
2022-10-09T20:12:07.250Z,9.20
2022-10-09T20:14:34.273Z,9.20
2022-10-09T20:17:02.332Z,9.27
2022-10-09T20:19:31.340Z,9.90
2022-10-09T20:21:58.575Z,10.35
2022-10-09T20:24:25.052Z,9.80
2022-10-09T20:26:51.540Z,10.15
2022-10-09T20:29:17.950Z,9.65
2022-10-09T20:31:44.480Z,10.80
2022-10-09T20:34:10.988Z,16.13
2022-10-09T20:36:39.013Z,13.38
2022-10-09T20:39:11.601Z,13.70
2022-10-09T20:41:41.112Z,10.25
2022-10-09T20:44:07.749Z,10.18
2022-10-09T20:46:36.916Z,9.93
2022-10-09T20:49:06.372Z,9.98
2022-10-09T20:51:35.196Z,10.52
2022-10-09T20:54:02.332Z,11.43
2022-10-09T20:56:31.540Z,11.70
2022-10-09T20:58:59.065Z,10.80
2022-10-09T21:01:25.961Z,11.90
2022-10-09T21:03:52.476Z,10.55
2022-10-09T21:06:20.802Z,12.43
2022-10-09T21:08:47.766Z,11.25
2022-10-09T21:11:17.071Z,11.32
2022-10-09T21:13:44.617Z,12.18
2022-10-09T21:16:13.596Z,13.52
2022-10-09T21:18:40.485Z,12.60
2022-10-09T21:21:09.689Z,11.23
2022-10-09T21:23:36.328Z,12.00
2022-10-09T21:26:03.583Z,11.88
2022-10-09T21:28:30.239Z,12.48
2022-10-09T21:30:56.776Z,12.63
2022-10-09T21:33:23.267Z,11.05
2022-10-09T21:35:51.621Z,11.40
2022-10-09T21:38:20.790Z,12.40
2022-10-09T21:40:49.237Z,11.90
2022-10-09T21:43:16.199Z,12.93
2022-10-09T21:45:42.782Z,14.27
2022-10-09T21:48:15.523Z,13.60
2022-10-09T21:50:42.380Z,12.52
2022-10-09T21:53:08.888Z,13.30
2022-10-09T21:55:37.646Z,13.55
2022-10-09T21:58:04.908Z,14.45
2022-10-09T22:00:31.442Z,11.68
2022-10-09T22:02:58.015Z,13.25
2022-10-09T22:05:24.493Z,14.02
2022-10-09T22:07:50.950Z,13.27
2022-10-09T22:10:17.515Z,14.48
2022-10-09T22:12:43.925Z,15.48
2022-10-09T22:15:10.842Z,13.05
2022-10-09T22:17:37.315Z,13.88
2022-10-09T22:20:04.246Z,13.13
2022-10-09T22:22:31.676Z,13.93
2022-10-09T22:24:59.742Z,13.50
2022-10-09T22:27:26.490Z,12.30
2022-10-09T22:29:53.035Z,12.07
2022-10-09T22:32:19.486Z,12.80
2022-10-09T22:34:45.981Z,14.35
2022-10-09T22:37:12.438Z,14.65
2022-10-09T22:39:38.937Z,14.43
2022-10-09T22:42:05.426Z,14.55
2022-10-09T22:44:32.135Z,13.45
2022-10-09T22:46:58.586Z,13.38
2022-10-09T22:49:24.995Z,14.90
2022-10-09T22:51:51.464Z,13.23
2022-10-09T22:54:19.010Z,12.48
2022-10-09T22:56:46.214Z,13.30
2022-10-09T22:59:15.590Z,14.30
2022-10-09T23:01:53.498Z,13.52
2022-10-09T23:04:21.643Z,14.57
2022-10-09T23:06:59.021Z,15.07
2022-10-09T23:09:29.007Z,13.60
2022-10-09T23:11:56.660Z,13.40
2022-10-09T23:14:23.740Z,13.73
2022-10-09T23:16:50.298Z,14.20
2022-10-09T23:19:17.847Z,13.10
2022-10-09T23:21:47.276Z,14.95
2022-10-09T23:24:18.254Z,14.00
2022-10-09T23:26:46.035Z,17.03
2022-10-09T23:29:18.023Z,14.20
2022-10-09T23:31:44.833Z,14.82
2022-10-09T23:34:11.800Z,15.23
2022-10-09T23:36:38.503Z,14.57
2022-10-09T23:39:06.223Z,15.85
2022-10-09T23:41:33.110Z,13.77
2022-10-09T23:43:59.536Z,15.25
2022-10-09T23:46:29.251Z,14.02
2022-10-09T23:48:55.771Z,14.52
2022-10-09T23:51:24.451Z,12.77
2022-10-09T23:53:51.092Z,12.93
2022-10-09T23:56:23.122Z,15.02
2022-10-09T23:58:49.949Z,12.35
